Time;durP1;ratioP1;P1;durP2;ratioP2;P2;SDS_P1;SDS_P2;PMS_P1;PMS_P2;Temp;Humidity;BMP_temperature;BMP_pressure;BME280_temperature;BME280_humidity;BME280_pressure;Samples;Min_cycle;Max_cycle;Signal;HPM_P1;HPM_P2
2023/08/05 00:00:58;;;;;;;3.40;3.10;;;;;;;19.75;100.00;98789.34;109409;1253;60466;-68
2023/08/05 00:03:26;;;;;;;3.30;2.70;;;;;;;19.76;100.00;98785.30;109388;1253;60471;-69
2023/08/05 00:05:53;;;;;;;3.20;2.90;;;;;;;19.75;100.00;98787.35;109482;1252;74619;-69
2023/08/05 00:08:21;;;;;;;3.30;2.90;;;;;;;19.77;100.00;98788.96;109436;1252;68203;-69
2023/08/05 00:10:48;;;;;;;3.30;3.00;;;;;;;19.79;100.00;98789.30;109377;1253;72922;-68
2023/08/05 00:13:16;;;;;;;4.90;2.90;;;;;;;19.82;100.00;98789.87;109407;1253;60397;-69
2023/08/05 00:15:43;;;;;;;4.00;2.80;;;;;;;19.83;100.00;98791.35;109370;1254;58997;-69
2023/08/05 00:18:10;;;;;;;3.40;2.60;;;;;;;19.83;100.00;98790.05;109447;1252;74660;-69
2023/08/05 00:20:38;;;;;;;2.70;2.50;;;;;;;19.82;100.00;98787.83;109424;1253;67592;-69
2023/08/05 00:23:05;;;;;;;3.00;2.50;;;;;;;19.82;100.00;98788.14;109395;1253;72734;-69
2023/08/05 00:25:32;;;;;;;4.30;2.80;;;;;;;19.79;100.00;98788.05;109394;1254;60887;-69
2023/08/05 00:28:00;;;;;;;5.00;3.00;;;;;;;19.77;100.00;98790.02;109423;1253;60072;-69
2023/08/05 00:30:27;;;;;;;4.00;3.00;;;;;;;19.74;100.00;98783.59;109334;1254;73738;-70
2023/08/05 00:32:55;;;;;;;4.50;3.10;;;;;;;19.75;100.00;98788.68;109419;1252;67758;-70
2023/08/05 00:35:23;;;;;;;6.20;3.20;;;;;;;19.79;100.00;98791.17;109385;1255;71447;-70
2023/08/05 00:37:50;;;;;;;3.40;3.10;;;;;;;19.82;100.00;98790.16;109400;1254;60378;-70
2023/08/05 00:40:18;;;;;;;5.00;2.90;;;;;;;19.87;100.00;98796.27;109479;1252;59323;-70
2023/08/05 00:42:45;;;;;;;3.00;2.70;;;;;;;19.91;100.00;98797.15;109389;1253;74660;-70
2023/08/05 00:45:12;;;;;;;3.10;2.90;;;;;;;19.95;100.00;98794.89;109364;1252;67560;-68
2023/08/05 00:47:40;;;;;;;3.00;2.80;;;;;;;20.01;100.00;98792.11;109426;1253;71292;-69
2023/08/05 00:50:08;;;;;;;3.60;3.30;;;;;;;20.07;100.00;98785.18;109273;1252;61864;-69
2023/08/05 00:52:35;;;;;;;4.00;3.00;;;;;;;20.11;100.00;98786.65;109478;1252;58862;-69
2023/08/05 00:55:03;;;;;;;3.40;3.10;;;;;;;20.16;100.00;98795.05;109339;1253;73034;-69
2023/08/05 00:57:33;;;;;;;5.40;3.20;;;;;;;20.20;100.00;98794.83;109334;1254;67796;-69
2023/08/05 01:00:00;;;;;;;6.20;3.00;;;;;;;20.24;100.00;98794.20;109203;1253;72630;-69
2023/08/05 01:02:28;;;;;;;4.80;3.40;;;;;;;20.28;100.00;98800.86;109279;1253;59829;-69
2023/08/05 01:04:55;;;;;;;4.10;3.80;;;;;;;20.31;100.00;98807.71;109306;1254;60123;-69
2023/08/05 01:07:22;;;;;;;4.70;3.60;;;;;;;20.31;100.00;98805.88;109467;1254;74653;-69
2023/08/05 01:09:51;;;;;;;5.50;3.20;;;;;;;20.26;100.00;98806.14;109472;1253;66289;-69
2023/08/05 01:12:19;;;;;;;5.50;3.80;;;;;;;20.22;100.00;98808.20;109144;1253;70767;-69
2023/08/05 01:14:46;;;;;;;4.30;3.70;;;;;;;20.17;100.00;98805.20;109428;1254;60740;-69
2023/08/05 01:17:14;;;;;;;6.90;3.00;;;;;;;20.11;100.00;98811.12;109452;1254;58878;-68
2023/08/05 01:19:42;;;;;;;4.10;2.80;;;;;;;20.05;100.00;98808.76;109510;1252;74617;-69
2023/08/05 01:22:24;;;;;;;3.90;3.20;;;;;;;20.00;100.00;98810.29;109165;1253;67592;-69
2023/08/05 01:25:06;;;;;;;4.80;3.10;;;;;;;19.94;100.00;98808.42;109176;1254;72632;-70
2023/08/05 01:27:34;;;;;;;3.30;3.00;;;;;;;19.89;100.00;98807.42;109388;1254;60491;-70
2023/08/05 01:30:02;;;;;;;5.40;3.30;;;;;;;19.88;100.00;98807.83;109458;1253;60443;-71
2023/08/05 01:32:30;;;;;;;3.70;3.40;;;;;;;19.86;100.00;98808.30;109473;1252;74649;-69
2023/08/05 01:34:57;;;;;;;5.70;3.10;;;;;;;19.85;100.00;98805.95;109408;1253;67905;-70
2023/08/05 01:37:25;;;;;;;3.70;3.30;;;;;;;19.85;100.00;98808.43;109294;1252;72029;-70
2023/08/05 01:39:52;;;;;;;3.40;3.10;;;;;;;19.86;100.00;98803.17;109523;1252;61807;-70
2023/08/05 01:42:19;;;;;;;3.20;2.90;;;;;;;19.88;100.00;98795.77;109402;1253;60072;-69
2023/08/05 01:44:47;;;;;;;3.70;2.90;;;;;;;19.86;100.00;98787.12;109350;1253;74640;-68
2023/08/05 01:47:16;;;;;;;3.10;2.80;;;;;;;19.79;100.00;98783.55;109301;1253;66372;-67
2023/08/05 01:49:43;;;;;;;4.20;3.30;;;;;;;19.74;100.00;98785.11;109397;1253;71834;-67
2023/08/05 01:52:11;;;;;;;4.60;2.90;;;;;;;19.71;100.00;98793.91;109375;1254;61654;-67
2023/08/05 01:54:38;;;;;;;3.70;3.20;;;;;;;19.70;100.00;98800.27;109409;1254;58951;-67
2023/08/05 01:57:07;;;;;;;3.60;2.80;;;;;;;19.68;100.00;98785.60;109461;1254;73207;-67
2023/08/05 01:59:34;;;;;;;5.20;3.20;;;;;;;19.64;100.00;98775.84;109435;1254;67866;-67
2023/08/05 02:02:02;;;;;;;4.70;2.80;;;;;;;19.58;100.00;98779.89;109292;1253;73337;-67
2023/08/05 02:04:29;;;;;;;10.90;3.70;;;;;;;19.52;100.00;98789.94;109342;1253;61820;-67
2023/08/05 02:06:57;;;;;;;4.70;3.40;;;;;;;19.51;100.00;98798.48;109249;1253;58961;-67
2023/08/05 02:09:24;;;;;;;5.20;3.40;;;;;;;19.49;100.00;98796.30;109226;1253;73762;-67
2023/08/05 02:11:52;;;;;;;5.10;3.20;;;;;;;19.49;100.00;98793.71;109415;1253;67647;-67
2023/08/05 02:14:19;;;;;;;12.20;3.40;;;;;;;19.50;100.00;98799.28;109330;1254;72668;-68
2023/08/05 02:16:46;;;;;;;12.90;3.80;;;;;;;19.50;100.00;98798.80;109374;1253;61644;-68
2023/08/05 02:19:14;;;;;;;10.10;3.80;;;;;;;19.51;100.00;98797.34;109276;1253;60026;-69
2023/08/05 02:21:42;;;;;;;5.60;3.30;;;;;;;19.51;100.00;98791.95;109423;1252;74692;-68
2023/08/05 02:24:09;;;;;;;8.00;3.20;;;;;;;19.51;100.00;98796.02;109445;1253;67693;-68
2023/08/05 02:26:37;;;;;;;8.50;3.70;;;;;;;19.50;100.00;98801.02;109515;1253;71477;-67
2023/08/05 02:29:05;;;;;;;8.40;3.40;;;;;;;19.50;100.00;98802.52;109470;1254;60459;-66
2023/08/05 02:31:33;;;;;;;9.70;3.90;;;;;;;19.50;100.00;98798.52;109269;1253;60127;-67
2023/08/05 02:34:00;;;;;;;7.40;4.00;;;;;;;19.50;100.00;98797.61;109407;1253;74778;-67
2023/08/05 02:36:28;;;;;;;4.60;2.90;;;;;;;19.50;100.00;98799.06;109419;1252;67607;-68
2023/08/05 02:38:55;;;;;;;7.40;3.50;;;;;;;19.46;100.00;98794.70;109373;1253;71185;-67
2023/08/05 02:41:22;;;;;;;6.70;3.50;;;;;;;19.42;100.00;98794.61;109409;1254;59835;-68
2023/08/05 02:43:50;;;;;;;9.60;3.60;;;;;;;19.41;100.00;98796.77;109517;1253;60039;-67
2023/08/05 02:46:17;;;;;;;9.30;3.80;;;;;;;19.39;100.00;98796.12;109294;1254;74620;-67
2023/08/05 02:48:44;;;;;;;8.30;3.70;;;;;;;19.37;100.00;98789.45;109393;1253;67533;-67
2023/08/05 02:51:12;;;;;;;9.60;4.10;;;;;;;19.37;100.00;98792.86;109480;1253;71538;-67
2023/08/05 02:53:39;;;;;;;9.20;3.80;;;;;;;19.37;100.00;98794.55;109386;1253;60440;-67
2023/08/05 02:56:07;;;;;;;8.10;3.60;;;;;;;19.37;100.00;98796.77;109473;1253;60157;-67
2023/08/05 02:58:34;;;;;;;7.30;3.80;;;;;;;19.38;100.00;98794.64;109425;1254;74666;-67
2023/08/05 03:01:08;;;;;;;5.40;4.00;;;;;;;19.40;100.00;98794.95;109402;1253;66609;-67
2023/08/05 03:03:36;;;;;;;7.50;3.80;;;;;;;19.43;100.00;98795.64;109362;1253;73191;-68
2023/08/05 03:06:04;;;;;;;6.10;3.70;;;;;;;19.45;100.00;98793.59;109448;1253;61658;-68
2023/08/05 03:08:31;;;;;;;8.70;3.70;;;;;;;19.47;100.00;98793.30;109485;1253;59899;-68
2023/08/05 03:11:00;;;;;;;3.90;3.20;;;;;;;19.45;100.00;98795.68;109499;1252;74673;-67
2023/08/05 03:13:27;;;;;;;3.30;3.00;;;;;;;19.38;100.00;98792.38;109230;1252;68238;-69
2023/08/05 03:15:57;;;;;;;3.90;3.20;;;;;;;19.32;100.00;98794.34;109468;1253;72802;-68
2023/08/05 03:18:24;;;;;;;5.30;3.30;;;;;;;19.29;100.00;98793.55;109329;1253;61706;-67
2023/08/05 03:20:52;;;;;;;4.20;3.10;;;;;;;19.28;100.00;98793.58;109224;1254;59979;-67
2023/08/05 03:23:20;;;;;;;5.60;3.00;;;;;;;19.33;100.00;98796.36;109298;1253;74714;-68
2023/08/05 03:25:50;;;;;;;6.60;3.20;;;;;;;19.39;100.00;98794.65;109335;1252;66321;-67
2023/08/05 03:28:17;;;;;;;4.20;3.30;;;;;;;19.44;100.00;98799.88;109278;1253;71386;-67
2023/08/05 03:30:48;;;;;;;3.30;2.90;;;;;;;19.50;100.00;98805.76;109375;1253;61852;-67
2023/08/05 03:33:20;;;;;;;6.10;2.90;;;;;;;19.54;100.00;98804.80;109264;1252;59209;-67
2023/08/05 03:35:47;;;;;;;4.30;3.10;;;;;;;19.57;100.00;98803.55;109450;1254;74655;-67
2023/08/05 03:38:17;;;;;;;4.00;2.80;;;;;;;19.60;100.00;98806.91;109316;1253;67253;-67
2023/08/05 03:40:45;;;;;;;3.70;3.30;;;;;;;19.66;100.00;98801.23;109363;1253;70995;-67
2023/08/05 03:43:12;;;;;;;5.20;3.10;;;;;;;19.77;100.00;98796.05;109374;1253;60609;-67
2023/08/05 03:45:39;;;;;;;3.50;3.00;;;;;;;19.91;100.00;98800.27;109485;1254;60058;-68
2023/08/05 03:48:07;;;;;;;4.10;3.40;;;;;;;20.05;100.00;98798.71;109461;1254;74656;-66
2023/08/05 03:50:35;;;;;;;3.20;2.90;;;;;;;20.20;100.00;98793.65;109261;1253;67625;-67
2023/08/05 03:53:02;;;;;;;3.30;3.00;;;;;;;20.38;100.00;98792.09;109458;1254;72509;-67
2023/08/05 03:55:31;;;;;;;5.10;3.90;;;;;;;20.54;100.00;98792.20;109427;1252;61675;-67
2023/08/05 03:57:59;;;;;;;3.30;3.10;;;;;;;20.72;100.00;98793.43;109389;1253;59031;-67
2023/08/05 04:00:26;;;;;;;3.30;3.00;;;;;;;20.88;100.00;98786.02;109242;1253;73363;-67
2023/08/05 04:02:54;;;;;;;3.30;2.90;;;;;;;21.09;100.00;98779.38;109463;1253;67899;-66
2023/08/05 04:05:21;;;;;;;6.50;3.50;;;;;;;21.31;100.00;98779.84;109441;1253;70872;-67
2023/08/05 04:07:49;;;;;;;3.60;3.30;;;;;;;21.48;100.00;98780.06;109337;1253;60380;-66
2023/08/05 04:10:21;;;;;;;5.30;3.50;;;;;;;21.70;100.00;98772.01;109459;1253;60102;-67
2023/08/05 04:12:48;;;;;;;3.90;3.60;;;;;;;21.97;100.00;98767.52;109390;1253;73416;-67
2023/08/05 04:15:18;;;;;;;4.20;3.80;;;;;;;22.22;100.00;98759.73;109396;1253;67898;-66
2023/08/05 04:17:47;;;;;;;4.20;3.80;;;;;;;22.42;100.00;98760.86;109441;1253;72659;-67
2023/08/05 04:20:17;;;;;;;6.10;3.80;;;;;;;22.56;100.00;98751.89;109463;1253;61631;-66
2023/08/05 04:22:48;;;;;;;4.60;4.00;;;;;;;22.67;100.00;98744.08;109381;1254;60037;-66
2023/08/05 04:25:16;;;;;;;9.90;4.20;;;;;;;22.77;100.00;98739.89;109513;1253;74431;-67
2023/08/05 04:27:43;;;;;;;3.80;3.50;;;;;;;22.90;100.00;98739.81;109504;1252;67550;-67
2023/08/05 04:30:11;;;;;;;5.10;3.40;;;;;;;23.09;100.00;98733.56;109376;1252;72625;-67
2023/08/05 04:32:39;;;;;;;3.90;3.60;;;;;;;23.36;100.00;98731.05;109456;1253;60907;-66
2023/08/05 04:35:07;;;;;;;4.80;3.90;;;;;;;23.65;100.00;98724.23;109534;1253;59097;-67
2023/08/05 04:37:34;;;;;;;5.90;4.00;;;;;;;23.88;100.00;98721.91;109389;1253;74791;-67
2023/08/05 04:40:02;;;;;;;6.70;3.70;;;;;;;24.12;100.00;98723.52;109374;1253;68084;-67
2023/08/05 04:42:29;;;;;;;5.20;4.30;;;;;;;24.37;100.00;98721.71;109460;1253;72770;-67
2023/08/05 04:44:56;;;;;;;6.50;4.20;;;;;;;24.64;100.00;98720.94;109443;1253;59097;-67
2023/08/05 04:47:24;;;;;;;4.60;3.80;;;;;;;24.97;100.00;98714.27;109486;1252;60018;-67
2023/08/05 04:49:51;;;;;;;4.60;4.20;;;;;;;25.22;100.00;98708.83;109472;1253;73807;-67
2023/08/05 04:52:19;;;;;;;4.70;4.30;;;;;;;25.42;100.00;98708.52;109512;1253;68370;-67
2023/08/05 04:54:46;;;;;;;5.60;4.20;;;;;;;25.65;100.00;98705.17;109543;1253;72724;-67
2023/08/05 04:57:15;;;;;;;5.00;4.30;;;;;;;25.96;100.00;98704.10;109472;1257;60059;-67
2023/08/05 04:59:43;;;;;;;5.20;4.90;;;;;;;26.22;100.00;98701.35;109379;1254;59052;-68
2023/08/05 05:02:10;;;;;;;7.50;4.60;;;;;;;26.36;100.00;98703.52;109433;1252;73461;-67
2023/08/05 05:04:37;;;;;;;4.90;4.50;;;;;;;26.45;100.00;98705.55;109474;1253;66776;-67
2023/08/05 05:07:05;;;;;;;4.20;3.90;;;;;;;26.54;100.00;98704.22;109429;1253;72880;-70
2023/08/05 05:09:32;;;;;;;4.90;4.60;;;;;;;26.62;100.00;98701.93;109385;1254;59025;-68
2023/08/05 05:12:00;;;;;;;5.30;4.90;;;;;;;26.66;100.00;98701.77;109408;1253;60070;-67
2023/08/05 05:14:31;;;;;;;5.60;4.90;;;;;;;26.71;100.00;98699.30;109408;1253;74585;-69
2023/08/05 05:16:58;;;;;;;5.40;4.50;;;;;;;26.90;100.00;98696.84;109351;1253;70287;-68
2023/08/05 05:19:26;;;;;;;4.90;4.30;;;;;;;27.18;100.00;98696.20;109448;1253;72733;-69
2023/08/05 05:21:53;;;;;;;5.80;4.50;;;;;;;27.39;100.00;98688.89;109415;1254;60097;-69
2023/08/05 05:24:22;;;;;;;6.90;4.60;;;;;;;27.54;100.00;98690.61;109436;1254;60190;-69
2023/08/05 05:26:49;;;;;;;5.40;4.60;;;;;;;27.69;100.00;98688.22;109468;1254;74661;-69
2023/08/05 05:29:20;;;;;;;6.40;5.00;;;;;;;27.96;100.00;98687.63;109530;1254;67913;-69
2023/08/05 05:31:48;;;;;;;5.40;4.20;;;;;;;28.21;100.00;98683.89;109400;1253;73234;-69
2023/08/05 05:34:15;;;;;;;5.40;4.60;;;;;;;28.46;100.00;98686.80;109518;1254;60730;-69
2023/08/05 05:36:42;;;;;;;4.50;4.20;;;;;;;28.74;100.00;98687.33;109404;1253;60540;-69
2023/08/05 05:39:10;;;;;;;5.50;4.60;;;;;;;29.00;100.00;98686.85;109519;1253;74629;-67
2023/08/05 05:41:37;;;;;;;4.80;4.40;;;;;;;29.19;100.00;98690.40;109449;1252;66940;-69
2023/08/05 05:44:05;;;;;;;4.60;4.20;;;;;;;29.26;100.00;98691.35;109440;1253;72229;-69
2023/08/05 05:46:32;;;;;;;5.70;4.90;;;;;;;29.30;100.00;98688.29;109494;1253;60288;-70
2023/08/05 05:49:00;;;;;;;5.90;5.10;;;;;;;29.30;100.00;98690.48;109447;1253;60011;-67
2023/08/05 05:51:27;;;;;;;5.30;4.80;;;;;;;29.25;100.00;98689.80;109447;1254;73390;-69
2023/08/05 05:53:57;;;;;;;7.30;5.00;;;;;;;29.30;100.00;98692.64;109438;1253;67568;-69
2023/08/05 05:56:25;;;;;;;5.10;4.60;;;;;;;29.45;100.00;98695.86;109486;1253;73181;-67
2023/08/05 05:58:54;;;;;;;4.90;4.50;;;;;;;29.63;100.00;98695.26;109383;1253;60733;-69
2023/08/05 06:01:23;;;;;;;5.20;4.80;;;;;;;29.71;100.00;98691.69;109287;1253;59954;-69
2023/08/05 06:03:50;;;;;;;5.00;4.50;;;;;;;29.84;100.00;98694.85;109491;1254;73414;-69
2023/08/05 06:06:18;;;;;;;6.30;4.30;;;;;;;30.02;100.00;98688.81;109514;1253;66276;-68
2023/08/05 06:08:46;;;;;;;6.00;4.20;;;;;;;30.13;100.00;98690.61;109533;1252;72728;-68
2023/08/05 06:11:16;;;;;;;6.00;4.40;;;;;;;30.19;100.00;98689.42;109465;1253;60003;-69
2023/08/05 06:13:44;;;;;;;6.60;4.10;;;;;;;30.18;100.00;98683.94;109472;1253;60108;-69
2023/08/05 06:16:11;;;;;;;7.40;3.90;;;;;;;30.25;100.00;98688.56;109372;1253;73614;-69
2023/08/05 06:18:39;;;;;;;4.30;4.00;;;;;;;30.31;100.00;98685.60;109469;1253;67242;-69
2023/08/05 06:21:06;;;;;;;4.20;3.80;;;;;;;30.35;100.00;98681.44;109358;1253;71367;-70
2023/08/05 06:23:34;;;;;;;4.90;4.60;;;;;;;30.43;100.00;98678.24;109420;1254;58979;-69
2023/08/05 06:26:01;;;;;;;5.20;4.80;;;;;;;30.56;100.00;98674.57;109543;1253;60084;-70
2023/08/05 06:28:28;;;;;;;5.90;4.10;;;;;;;30.79;100.00;98667.89;109503;1253;75334;-70
2023/08/05 06:30:56;;;;;;;4.60;4.20;;;;;;;30.97;100.00;98666.10;109395;1253;67601;-69
2023/08/05 06:33:24;;;;;;;4.30;3.90;;;;;;;31.10;100.00;98660.73;109489;1253;72677;-70
2023/08/05 06:35:51;;;;;;;4.80;4.30;;;;;;;31.18;100.00;98661.08;109403;1254;59212;-69
2023/08/05 06:38:18;;;;;;;5.90;4.10;;;;;;;31.25;100.00;98658.10;109521;1253;59988;-69
2023/08/05 06:40:46;;;;;;;4.20;3.90;;;;;;;31.34;100.00;98657.48;109471;1253;74666;-71
2023/08/05 06:43:13;;;;;;;4.50;3.80;;;;;;;31.35;100.00;98660.80;109477;1253;67626;-69
2023/08/05 06:45:41;;;;;;;4.00;3.70;;;;;;;31.35;100.00;98658.30;109405;1253;72794;-57
2023/08/05 06:48:11;;;;;;;4.10;3.80;;;;;;;31.39;100.00;98657.08;109359;1254;60074;-59
2023/08/05 06:50:39;;;;;;;4.00;3.60;;;;;;;31.44;100.00;98661.27;109454;1254;60056;-70
2023/08/05 06:53:06;;;;;;;4.50;3.90;;;;;;;31.31;100.00;98653.17;109437;1253;73445;-69
2023/08/05 06:55:34;;;;;;;4.70;3.90;;;;;;;31.19;100.00;98658.05;109549;1253;68602;-67
2023/08/05 06:58:01;;;;;;;4.20;3.70;;;;;;;31.22;100.00;98657.02;109296;1253;72403;-73
2023/08/05 07:00:28;;;;;;;4.20;3.80;;;;;;;31.31;100.00;98667.39;109432;1254;60539;-68
2023/08/05 07:02:57;;;;;;;5.00;3.70;;;;;;;31.39;100.00;98662.52;109409;1253;59057;-68
2023/08/05 07:05:24;;;;;;;3.60;3.40;;;;;;;31.55;100.00;98657.98;109508;1253;74674;-70
2023/08/05 07:07:52;;;;;;;3.90;3.60;;;;;;;31.81;100.00;98655.15;109414;1254;66970;-68
2023/08/05 07:10:23;;;;;;;5.20;3.70;;;;;;;31.96;100.00;98652.07;109347;1254;71788;-67
2023/08/05 07:12:50;;;;;;;4.20;3.50;;;;;;;32.02;100.00;98656.92;109439;1253;59093;-68
2023/08/05 07:15:18;;;;;;;5.60;3.80;;;;;;;32.05;100.00;98662.24;109455;1253;60021;-69
2023/08/05 07:17:45;;;;;;;5.90;3.40;;;;;;;32.16;100.00;98657.28;109455;1253;74612;-69
2023/08/05 07:20:12;;;;;;;4.90;3.40;;;;;;;32.31;99.91;98668.12;109448;1253;67543;-69
2023/08/05 07:22:40;;;;;;;3.50;3.30;;;;;;;32.38;97.83;98663.81;109410;1253;72612;-69
2023/08/05 07:25:07;;;;;;;3.30;3.10;;;;;;;32.35;96.50;98669.67;109464;1253;58963;-69
2023/08/05 07:27:35;;;;;;;3.40;3.20;;;;;;;32.34;97.13;98668.33;109465;1253;58836;-69
2023/08/05 07:30:03;;;;;;;4.20;3.50;;;;;;;32.32;95.44;98659.73;109393;1254;74662;-68
2023/08/05 07:32:31;;;;;;;3.90;3.50;;;;;;;32.33;96.30;98668.10;109476;1254;67665;-68
2023/08/05 07:34:59;;;;;;;5.10;3.70;;;;;;;32.43;96.44;98667.80;109388;1253;72647;-68
2023/08/05 07:37:26;;;;;;;3.30;3.10;;;;;;;32.67;96.09;98665.79;109466;1253;60077;-69
2023/08/05 07:39:56;;;;;;;3.50;3.30;;;;;;;32.90;92.18;98677.09;109486;1254;58991;-70
2023/08/05 07:42:25;;;;;;;4.10;2.90;;;;;;;33.01;88.39;98682.06;109443;1255;75774;-69
2023/08/05 07:44:53;;;;;;;3.80;3.50;;;;;;;32.94;87.16;98683.45;109489;1253;66065;-70
2023/08/05 07:47:20;;;;;;;3.40;3.20;;;;;;;32.86;88.54;98682.28;109452;1253;73200;-69
2023/08/05 07:49:48;;;;;;;4.70;3.20;;;;;;;32.92;88.54;98679.06;109407;1256;60074;-68
2023/08/05 07:52:16;;;;;;;4.10;3.40;;;;;;;32.95;86.84;98685.77;109479;1254;59561;-68
2023/08/05 07:54:45;;;;;;;4.00;3.60;;;;;;;32.85;86.87;98673.98;109466;1254;74675;-69
2023/08/05 07:57:12;;;;;;;4.00;3.20;;;;;;;32.81;86.15;98670.52;109453;1253;67800;-68
2023/08/05 07:59:40;;;;;;;5.10;3.60;;;;;;;32.78;88.09;98671.86;109254;1254;72654;-68
2023/08/05 08:02:10;;;;;;;5.00;3.20;;;;;;;32.88;89.13;98682.82;109419;1259;58975;-68
2023/08/05 08:04:38;;;;;;;3.50;3.10;;;;;;;33.09;85.79;98688.67;109399;1254;61033;-69
2023/08/05 08:07:05;;;;;;;5.50;3.50;;;;;;;33.12;83.38;98676.48;109438;1253;74619;-69
2023/08/05 08:09:33;;;;;;;5.30;3.20;;;;;;;33.15;85.84;98676.06;109431;1254;67933;-69
2023/08/05 08:12:00;;;;;;;4.20;3.40;;;;;;;33.28;85.75;98682.23;109508;1254;72380;-69
2023/08/05 08:14:28;;;;;;;3.60;3.40;;;;;;;33.31;84.35;98685.26;109462;1254;59283;-69
2023/08/05 08:16:55;;;;;;;3.50;3.20;;;;;;;33.29;83.69;98683.06;109354;1254;59055;-69
2023/08/05 08:19:23;;;;;;;3.90;3.60;;;;;;;33.31;85.67;98688.48;109369;1254;74536;-70
2023/08/05 08:21:50;;;;;;;6.60;3.50;;;;;;;33.38;83.71;98682.19;109340;1259;66612;-70
2023/08/05 08:24:18;;;;;;;3.70;3.40;;;;;;;33.48;84.00;98678.46;109435;1254;71398;-70
2023/08/05 08:26:45;;;;;;;4.60;3.60;;;;;;;33.53;81.00;98677.31;109506;1253;59000;-69
2023/08/05 08:29:13;;;;;;;5.80;3.40;;;;;;;33.59;81.87;98685.43;109410;1254;58957;-69
2023/08/05 08:31:40;;;;;;;4.90;3.50;;;;;;;33.67;79.89;98685.33;109382;1255;74871;-69
2023/08/05 08:34:08;;;;;;;6.30;3.00;;;;;;;33.70;79.91;98676.85;109399;1253;67813;-69
2023/08/05 08:36:35;;;;;;;6.00;4.00;;;;;;;33.86;78.60;98679.77;109385;1254;72637;-70
2023/08/05 08:39:02;;;;;;;4.10;3.70;;;;;;;33.94;75.96;98673.73;109393;1253;60026;-70
2023/08/05 08:41:32;;;;;;;3.40;3.10;;;;;;;33.90;75.12;98682.27;109481;1253;59395;-70
2023/08/05 08:44:02;;;;;;;5.10;3.60;;;;;;;33.79;74.82;98674.89;109420;1257;73407;-69
2023/08/05 08:46:30;;;;;;;4.80;4.20;;;;;;;33.83;75.54;98674.30;109429;1254;67583;-69
2023/08/05 08:48:57;;;;;;;5.70;3.90;;;;;;;33.89;74.46;98671.21;109161;1255;72695;-69
2023/08/05 08:51:25;;;;;;;7.50;3.80;;;;;;;33.97;70.98;98670.98;109394;1254;58949;-70
2023/08/05 08:53:52;;;;;;;4.20;3.60;;;;;;;33.98;70.14;98666.00;109169;1253;60882;-68
2023/08/05 08:56:19;;;;;;;4.00;3.60;;;;;;;34.02;69.46;98671.98;109430;1254;74590;-69
2023/08/05 08:58:47;;;;;;;4.30;3.60;;;;;;;34.07;68.23;98660.65;109430;1254;66290;-70
2023/08/05 09:01:16;;;;;;;7.10;3.30;;;;;;;34.14;66.64;98659.06;109421;1254;72647;-70
2023/08/05 09:03:44;;;;;;;3.80;3.00;;;;;;;34.21;64.41;98668.73;109388;1254;59240;-71
2023/08/05 09:06:11;;;;;;;2.80;2.40;;;;;;;34.17;58.25;98666.51;109552;1254;59217;-69
2023/08/05 09:08:39;;;;;;;2.70;2.50;;;;;;;34.11;55.49;98664.59;109368;1254;74717;-70
2023/08/05 09:11:06;;;;;;;3.30;2.00;;;;;;;34.07;51.90;98668.63;109452;1254;67646;-69
2023/08/05 09:13:33;;;;;;;4.10;2.10;;;;;;;34.15;45.77;98678.34;109461;1254;71209;-70
2023/08/05 09:16:01;;;;;;;2.10;1.50;;;;;;;34.21;41.73;98688.46;109400;1254;59299;-69
2023/08/05 09:18:29;;;;;;;1.70;1.50;;;;;;;34.23;38.85;98672.52;109383;1254;60221;-70
2023/08/05 09:20:59;;;;;;;3.40;1.60;;;;;;;34.26;38.28;98684.85;109271;1254;74636;-69
2023/08/05 09:23:26;;;;;;;2.70;1.60;;;;;;;34.35;37.70;98667.16;109340;1253;67594;-70
2023/08/05 09:25:54;;;;;;;5.50;2.10;;;;;;;34.43;37.59;98672.47;109426;1253;72641;-67
2023/08/05 09:28:31;;;;;;;2.50;1.70;;;;;;;34.43;36.96;98677.58;109459;1254;60050;-69
2023/08/05 09:31:15;;;;;;;3.80;1.60;;;;;;;34.33;37.44;98670.86;109531;1254;58855;-69
2023/08/05 09:33:43;;;;;;;3.50;1.50;;;;;;;34.35;37.54;98667.39;109382;1254;74759;-70
2023/08/05 09:36:11;;;;;;;8.80;1.80;;;;;;;34.37;37.84;98664.56;109459;1253;66303;-70
2023/08/05 09:38:41;;;;;;;2.20;1.70;;;;;;;34.38;38.34;98663.25;109380;1254;72584;-69
2023/08/05 09:41:09;;;;;;;2.20;1.50;;;;;;;34.51;38.68;98653.01;109412;1253;59422;-68
2023/08/05 09:43:40;;;;;;;4.00;1.90;;;;;;;34.63;39.16;98662.80;109379;1254;59942;-69
2023/08/05 09:46:11;;;;;;;2.50;1.50;;;;;;;34.68;38.16;98661.70;109465;1254;73410;-69
2023/08/05 09:48:43;;;;;;;3.70;1.60;;;;;;;34.66;37.80;98668.66;109446;1254;67640;-69
2023/08/05 09:51:14;;;;;;;2.90;1.90;;;;;;;34.58;37.13;98663.18;109389;1254;72984;-69
2023/08/05 09:53:41;;;;;;;2.40;1.70;;;;;;;34.47;37.98;98660.05;109429;1254;60163;-68
2023/08/05 09:56:10;;;;;;;2.40;1.60;;;;;;;34.46;38.13;98662.48;109427;1254;59255;-68
2023/08/05 09:58:37;;;;;;;4.60;1.80;;;;;;;34.54;38.81;98667.25;109454;1254;72991;-70
2023/08/05 10:01:08;;;;;;;5.80;1.80;;;;;;;34.64;38.41;98668.99;109298;1254;66666;-68
2023/08/05 10:03:37;;;;;;;6.10;1.90;;;;;;;34.76;37.63;98664.21;109417;1254;72717;-68
2023/08/05 10:06:08;;;;;;;4.80;2.20;;;;;;;34.84;37.61;98664.63;109437;1253;59565;-70
2023/08/05 10:08:36;;;;;;;2.70;1.90;;;;;;;34.88;37.57;98663.56;109436;1253;58919;-68
2023/08/05 10:11:04;;;;;;;3.00;1.90;;;;;;;34.86;38.09;98654.64;109164;1259;73249;-68
2023/08/05 10:13:39;;;;;;;5.30;2.00;;;;;;;34.85;37.36;98665.22;109369;1254;67604;-69
2023/08/05 10:16:07;;;;;;;4.30;1.90;;;;;;;34.81;37.88;98652.84;109313;1253;72641;-69
2023/08/05 10:18:35;;;;;;;5.40;1.90;;;;;;;34.75;38.28;98652.21;109376;1254;59092;-70
2023/08/05 10:21:05;;;;;;;2.20;1.90;;;;;;;34.67;38.63;98655.81;109154;1254;58881;-68
2023/08/05 10:23:35;;;;;;;4.30;2.30;;;;;;;34.54;38.84;98650.91;109440;1253;73463;-70
2023/08/05 10:26:04;;;;;;;3.60;1.90;;;;;;;34.37;39.50;98644.66;109419;1253;67705;-69
2023/08/05 10:28:34;;;;;;;2.50;2.10;;;;;;;34.08;40.21;98637.34;109434;1253;71389;-69
2023/08/05 10:31:03;;;;;;;2.50;2.00;;;;;;;33.80;42.51;98630.69;109367;1253;58951;-69
2023/08/05 10:33:30;;;;;;;2.00;1.90;;;;;;;33.61;43.33;98634.27;109327;1257;58847;-70
2023/08/05 10:36:02;;;;;;;5.60;2.70;;;;;;;33.40;43.35;98631.20;109454;1254;74623;-71
2023/08/05 10:38:31;;;;;;;5.50;2.50;;;;;;;33.18;43.68;98630.67;109470;1254;68724;-71
2023/08/05 10:41:04;;;;;;;4.90;2.10;;;;;;;32.94;45.08;98623.08;109206;1254;72686;-70
2023/08/05 10:43:38;;;;;;;2.90;2.30;;;;;;;32.74;46.66;98628.08;109310;1254;59385;-69
2023/08/05 10:46:06;;;;;;;4.40;2.20;;;;;;;32.59;47.08;98616.16;109374;1253;60206;-69
2023/08/05 10:48:42;;;;;;;6.50;2.40;;;;;;;32.43;46.37;98618.25;109386;1253;73483;-69
2023/08/05 10:51:13;;;;;;;4.60;2.30;;;;;;;32.23;49.21;98592.32;109449;1254;67595;-69
2023/08/05 10:53:59;;;;;;;4.20;2.30;;;;;;;32.14;51.57;98585.20;109402;1254;71484;-68
2023/08/05 10:56:33;;;;;;;5.60;2.70;;;;;;;32.15;50.61;98584.64;109317;1254;60043;-70
2023/08/05 10:59:03;;;;;;;3.40;2.10;;;;;;;32.12;49.96;98580.16;109448;1253;59291;-68
2023/08/05 11:01:56;;;;;;;4.40;2.40;;;;;;;32.08;50.25;98584.15;109430;1253;74774;-68
2023/08/05 11:04:27;;;;;;;7.00;2.30;;;;;;;32.01;50.84;98582.79;109478;1253;66996;-69
2023/08/05 11:06:55;;;;;;;4.60;2.50;;;;;;;31.98;51.71;98584.19;109434;1253;72677;-68
2023/08/05 11:09:22;;;;;;;4.20;2.50;;;;;;;31.91;51.65;98594.30;109361;1254;58883;-69
2023/08/05 11:11:50;;;;;;;6.90;2.60;;;;;;;31.86;52.18;98582.98;109420;1253;59190;-68
2023/08/05 11:14:18;;;;;;;3.30;2.30;;;;;;;31.85;52.73;98582.00;109412;1253;74796;-69
2023/08/05 11:16:46;;;;;;;4.80;2.40;;;;;;;31.83;52.56;98576.27;109369;1252;68040;-69
2023/08/05 11:19:14;;;;;;;7.10;2.20;;;;;;;31.83;51.81;98584.11;109382;1253;72322;-68
2023/08/05 11:21:45;;;;;;;3.70;2.10;;;;;;;31.81;52.36;98580.19;109372;1253;58947;-68
2023/08/05 11:24:19;;;;;;;2.80;2.10;;;;;;;31.82;52.07;98580.84;109400;1254;59415;-69